Time;durP1;ratioP1;P1;durP2;ratioP2;P2;SDS_P1;SDS_P2;PMS_P1;PMS_P2;Temp;Humidity;BMP_temperature;BMP_pressure;BME280_temperature;BME280_humidity;BME280_pressure;Samples;Min_cycle;Max_cycle;Signal;HPM_P1;HPM_P2
2021/03/25 00:01:14;;;;;;;10.32;6.95;;;5.40;63.40;;;;;;5084472;28;27473;-59
2021/03/25 00:03:58;;;;;;;10.68;6.93;;;5.30;63.60;;;;;;5086712;28;27419;-60
2021/03/25 00:06:46;;;;;;;8.02;5.72;;;5.30;63.80;;;;;;5086652;28;27463;-60
2021/03/25 00:09:33;;;;;;;12.55;5.90;;;5.30;63.90;;;;;;5086390;28;27375;-60
2021/03/25 00:12:18;;;;;;;10.80;6.95;;;5.20;63.60;;;;;;5085985;28;27385;-60
2021/03/25 00:15:04;;;;;;;11.18;6.65;;;5.20;63.80;;;;;;5086583;28;27865;-60
2021/03/25 00:17:49;;;;;;;9.88;6.20;;;5.20;64.10;;;;;;5086225;28;27435;-60
2021/03/25 00:20:34;;;;;;;14.30;7.47;;;5.20;64.10;;;;;;5086384;28;27372;-60
2021/03/25 00:23:19;;;;;;;9.88;6.72;;;5.10;64.00;;;;;;5086201;28;27344;-60
2021/03/25 00:26:03;;;;;;;11.27;7.15;;;5.10;63.80;;;;;;5086378;28;27391;-60
2021/03/25 00:28:48;;;;;;;10.75;6.18;;;5.00;64.20;;;;;;5084776;28;27337;-60
2021/03/25 00:31:32;;;;;;;11.65;6.22;;;5.00;64.10;;;;;;5085450;28;27415;-60
2021/03/25 00:34:17;;;;;;;12.02;6.70;;;5.00;64.20;;;;;;5085644;28;27388;-60
2021/03/25 00:37:01;;;;;;;10.20;6.47;;;5.00;64.30;;;;;;5086175;28;27315;-60
2021/03/25 00:39:46;;;;;;;10.55;5.90;;;4.90;64.40;;;;;;5086227;28;27388;-60
2021/03/25 00:42:31;;;;;;;9.38;6.07;;;4.90;64.10;;;;;;5099057;28;27335;-60
2021/03/25 00:45:30;;;;;;;10.15;6.40;;;4.90;64.30;;;;;;5106518;28;27389;-59
2021/03/25 00:48:16;;;;;;;10.80;6.72;;;4.80;64.60;;;;;;5106099;28;27472;-60
2021/03/25 00:51:01;;;;;;;9.07;6.30;;;4.80;64.50;;;;;;5102696;28;27470;-60
2021/03/25 00:53:46;;;;;;;8.98;5.78;;;4.80;64.60;;;;;;5091381;28;27400;-60
2021/03/25 00:56:30;;;;;;;11.10;7.03;;;4.80;64.70;;;;;;5105715;28;27408;-60
2021/03/25 00:59:15;;;;;;;9.75;6.57;;;4.70;64.60;;;;;;5106272;28;27499;-60
2021/03/25 01:02:00;;;;;;;12.98;6.43;;;4.70;64.70;;;;;;5102964;28;27457;-60
2021/03/25 01:04:45;;;;;;;9.98;6.18;;;4.70;65.00;;;;;;5105984;28;27404;-60
2021/03/25 01:07:30;;;;;;;9.52;6.15;;;4.70;65.00;;;;;;5105916;28;27496;-60
2021/03/25 01:10:42;;;;;;;9.95;6.68;;;4.70;65.10;;;;;;5087718;28;27847;-60
2021/03/25 01:13:29;;;;;;;10.40;6.63;;;4.60;65.20;;;;;;5105773;28;27415;-60
2021/03/25 01:16:16;;;;;;;9.73;6.68;;;4.60;65.30;;;;;;5106015;28;27407;-60
2021/03/25 01:19:02;;;;;;;10.32;6.03;;;4.60;65.20;;;;;;5105672;28;27442;-60
2021/03/25 01:21:47;;;;;;;9.75;6.68;;;4.60;65.20;;;;;;5087413;28;27453;-60
2021/03/25 01:24:31;;;;;;;9.30;6.15;;;4.60;65.30;;;;;;5089855;28;27595;-60
2021/03/25 01:27:16;;;;;;;12.07;6.07;;;4.60;65.50;;;;;;5105933;28;27424;-60
2021/03/25 01:30:01;;;;;;;11.13;6.53;;;4.50;65.50;;;;;;5102557;28;27412;-60
2021/03/25 01:32:51;;;;;;;9.95;6.55;;;4.50;65.40;;;;;;5086955;28;27438;-60
2021/03/25 01:35:37;;;;;;;10.43;5.70;;;4.50;65.40;;;;;;5105394;28;27415;-60
2021/03/25 01:38:22;;;;;;;9.30;6.45;;;4.40;65.30;;;;;;5087197;28;27327;-60
2021/03/25 01:41:08;;;;;;;11.15;6.35;;;4.50;65.40;;;;;;5105008;28;27392;-59
2021/03/25 01:43:53;;;;;;;10.40;6.18;;;4.40;65.50;;;;;;5105302;28;27366;-59
2021/03/25 01:46:39;;;;;;;10.05;6.65;;;4.40;65.40;;;;;;5071818;28;27340;-60
2021/03/25 01:49:24;;;;;;;9.25;5.75;;;4.40;65.70;;;;;;5105261;28;27426;-60
2021/03/25 01:52:39;;;;;;;12.50;5.93;;;4.40;65.50;;;;;;5086812;28;27402;-60
2021/03/25 01:55:34;;;;;;;10.27;6.22;;;4.40;65.80;;;;;;5072902;28;27400;-60
2021/03/25 01:58:29;;;;;;;10.60;5.82;;;4.30;65.60;;;;;;5086838;28;27474;-60
2021/03/25 02:01:25;;;;;;;13.57;6.20;;;4.30;65.90;;;;;;5086879;28;27321;-60
2021/03/25 02:04:31;;;;;;;8.57;6.03;;;4.30;65.90;;;;;;5105294;28;27462;-60
2021/03/25 02:07:41;;;;;;;7.75;5.40;;;4.20;65.90;;;;;;5104903;28;27447;-60
2021/03/25 02:10:44;;;;;;;10.68;5.72;;;4.20;65.90;;;;;;5086342;28;27441;-60
2021/03/25 02:14:09;;;;;;;13.32;5.88;;;4.20;65.90;;;;;;5104933;28;27423;-60
2021/03/25 02:17:00;;;;;;;9.50;5.65;;;4.20;65.90;;;;;;5086638;28;27379;-60
2021/03/25 02:20:12;;;;;;;8.57;5.32;;;4.20;66.00;;;;;;5101506;28;27429;-60
2021/03/25 02:23:36;;;;;;;8.38;5.63;;;4.20;66.10;;;;;;5101404;28;27416;-60
2021/03/25 02:26:33;;;;;;;9.30;5.45;;;4.10;66.00;;;;;;5086458;28;27369;-60
2021/03/25 02:29:26;;;;;;;9.30;5.97;;;4.10;66.30;;;;;;5104628;28;27506;-59
2021/03/25 02:32:35;;;;;;;9.15;5.82;;;4.10;66.30;;;;;;5086723;28;27884;-60
2021/03/25 02:35:32;;;;;;;8.77;5.65;;;4.10;66.30;;;;;;5086050;28;27336;-60
2021/03/25 02:38:23;;;;;;;8.95;5.50;;;4.00;66.40;;;;;;5086364;28;27467;-60
2021/03/25 02:41:22;;;;;;;8.73;5.45;;;4.00;66.30;;;;;;5101383;28;27594;-59
2021/03/25 02:44:29;;;;;;;7.95;5.30;;;4.00;66.30;;;;;;5086303;28;27424;-59
2021/03/25 02:47:14;;;;;;;9.82;5.82;;;4.00;66.40;;;;;;5088523;28;27495;-59
2021/03/25 02:50:17;;;;;;;8.60;5.38;;;4.00;66.10;;;;;;5071804;28;27425;-59
2021/03/25 02:53:34;;;;;;;11.60;5.30;;;3.90;66.20;;;;;;5104593;28;27470;-60
2021/03/25 02:56:29;;;;;;;9.13;5.50;;;3.90;66.40;;;;;;5098758;27;27393;-60
2021/03/25 02:59:33;;;;;;;7.40;5.53;;;3.90;66.40;;;;;;5075840;28;27603;-60
2021/03/25 03:02:43;;;;;;;9.63;5.63;;;3.90;66.60;;;;;;5089759;28;27348;-60
2021/03/25 03:05:48;;;;;;;7.53;5.57;;;3.80;66.60;;;;;;5092830;28;27330;-60
2021/03/25 03:08:37;;;;;;;9.77;5.72;;;3.90;66.70;;;;;;5075187;28;27424;-59
2021/03/25 03:11:25;;;;;;;10.40;5.65;;;3.80;66.60;;;;;;5089073;28;27462;-60
2021/03/25 03:14:24;;;;;;;9.85;5.38;;;3.80;66.70;;;;;;5107480;28;27352;-60
2021/03/25 03:17:30;;;;;;;14.57;5.40;;;3.80;66.70;;;;;;5089518;28;27434;-60
2021/03/25 03:20:38;;;;;;;11.20;5.32;;;3.70;66.60;;;;;;5089361;28;27474;-59
2021/03/25 03:23:50;;;;;;;7.35;5.20;;;3.80;66.70;;;;;;5103965;28;27582;-60
2021/03/25 03:26:38;;;;;;;7.55;5.20;;;3.70;66.80;;;;;;5074782;28;27483;-59
2021/03/25 03:29:24;;;;;;;10.05;5.93;;;3.70;66.70;;;;;;5089573;28;27466;-59
2021/03/25 03:32:36;;;;;;;8.40;4.85;;;3.70;66.70;;;;;;5089027;28;27469;-59
2021/03/25 03:35:30;;;;;;;8.50;5.53;;;3.70;66.90;;;;;;5089141;28;27423;-60
2021/03/25 03:38:17;;;;;;;9.05;5.70;;;3.60;66.90;;;;;;5107678;28;27489;-60
2021/03/25 03:41:33;;;;;;;9.02;5.20;;;3.60;66.90;;;;;;5092090;28;27643;-60
2021/03/25 03:44:26;;;;;;;8.13;5.18;;;3.60;67.00;;;;;;5075102;28;27942;-59
2021/03/25 03:47:11;;;;;;;8.13;5.25;;;3.60;67.00;;;;;;5088890;28;27462;-60
2021/03/25 03:50:02;;;;;;;8.68;5.90;;;3.60;67.00;;;;;;5089001;28;27392;-60
2021/03/25 03:52:49;;;;;;;9.60;5.15;;;3.50;67.00;;;;;;5074747;28;27329;-59
2021/03/25 03:55:34;;;;;;;7.93;5.18;;;3.50;67.00;;;;;;5088585;28;27497;-59
2021/03/25 03:58:35;;;;;;;8.82;5.07;;;3.50;67.10;;;;;;5088907;28;27391;-59
2021/03/25 04:01:24;;;;;;;9.95;5.20;;;3.50;67.10;;;;;;5107047;28;27369;-60
2021/03/25 04:04:32;;;;;;;8.13;4.50;;;3.50;67.10;;;;;;5088712;28;27482;-60
2021/03/25 04:07:34;;;;;;;7.00;4.63;;;3.50;67.10;;;;;;5104043;28;27351;-60
2021/03/25 04:11:18;;;;;;;9.00;5.20;;;3.40;67.10;;;;;;5088860;28;27466;-60
2021/03/25 04:14:56;;;;;;;14.07;5.60;;;3.40;67.20;;;;;;5088660;28;27306;-60
2021/03/25 04:18:16;;;;;;;17.15;5.25;;;3.40;67.20;;;;;;5069042;28;27514;-60
2021/03/25 04:21:39;;;;;;;7.85;5.25;;;3.40;67.20;;;;;;5095155;28;27466;-60
2021/03/25 04:24:29;;;;;;;6.50;4.75;;;3.40;67.20;;;;;;5091699;28;27526;-60
2021/03/25 04:27:19;;;;;;;7.35;4.63;;;3.30;67.20;;;;;;5091998;28;27323;-60
2021/03/25 04:30:27;;;;;;;7.13;5.75;;;3.30;67.20;;;;;;5091607;28;27397;-60
2021/03/25 04:33:14;;;;;;;8.05;5.60;;;3.30;67.40;;;;;;5091299;28;27371;-60
2021/03/25 04:35:58;;;;;;;9.52;5.45;;;3.20;67.30;;;;;;5091404;28;27485;-60
2021/03/25 04:38:43;;;;;;;7.47;5.43;;;3.20;67.40;;;;;;5091313;28;27408;-60
2021/03/25 04:41:29;;;;;;;9.30;6.03;;;3.20;67.40;;;;;;5106041;28;27313;-60
2021/03/25 04:44:42;;;;;;;9.57;5.20;;;3.20;67.50;;;;;;5091201;28;27953;-59
2021/03/25 04:47:32;;;;;;;9.15;5.28;;;3.20;67.50;;;;;;5093847;28;27364;-60
2021/03/25 04:50:36;;;;;;;7.80;5.05;;;3.20;67.30;;;;;;5106497;28;27462;-60
2021/03/25 04:53:32;;;;;;;8.40;5.25;;;3.20;67.50;;;;;;5106400;28;27471;-59
2021/03/25 04:56:18;;;;;;;7.63;5.10;;;3.20;67.60;;;;;;5090818;28;27476;-60
2021/03/25 04:59:03;;;;;;;9.57;5.32;;;3.10;67.50;;;;;;5076984;28;27607;-60
2021/03/25 05:01:48;;;;;;;8.80;5.50;;;3.10;67.40;;;;;;5076145;28;27494;-59
2021/03/25 05:04:46;;;;;;;7.88;5.05;;;3.10;67.60;;;;;;5073215;28;27492;-59
2021/03/25 05:07:36;;;;;;;8.82;5.70;;;3.10;67.60;;;;;;5106145;28;27353;-59
2021/03/25 05:11:00;;;;;;;9.95;6.10;;;3.10;67.60;;;;;;5090561;28;27514;-60
2021/03/25 05:13:46;;;;;;;7.53;4.85;;;3.10;67.70;;;;;;5023539;28;27467;-60
2021/03/25 05:17:03;;;;;;;9.13;5.10;;;3.10;67.80;;;;;;5106019;28;27424;-60
2021/03/25 05:20:16;;;;;;;8.32;5.55;;;3.00;67.80;;;;;;5105336;27;27458;-60
2021/03/25 05:23:16;;;;;;;7.85;4.82;;;3.00;67.80;;;;;;5102384;28;27477;-60
2021/03/25 05:26:31;;;;;;;8.23;4.95;;;3.10;67.80;;;;;;5090798;28;27318;-60
2021/03/25 05:29:16;;;;;;;8.93;5.05;;;3.10;67.80;;;;;;5096002;28;27402;-60
2021/03/25 05:32:01;;;;;;;9.63;5.75;;;3.00;67.80;;;;;;5076330;28;27333;-60
2021/03/25 05:34:45;;;;;;;11.98;5.55;;;3.00;67.60;;;;;;5075959;28;27424;-60
2021/03/25 05:37:31;;;;;;;7.20;5.13;;;3.10;67.80;;;;;;5090383;28;27430;-60
2021/03/25 05:40:24;;;;;;;7.18;5.13;;;3.10;67.80;;;;;;5105711;28;27317;-60
2021/03/25 05:43:29;;;;;;;10.30;5.47;;;3.10;67.80;;;;;;5104518;28;27675;-59
2021/03/25 05:46:17;;;;;;;8.32;5.70;;;3.20;67.80;;;;;;5105279;28;27425;-59
2021/03/25 05:49:31;;;;;;;9.43;5.50;;;3.20;67.80;;;;;;5105506;28;27407;-60
2021/03/25 05:52:19;;;;;;;7.95;5.68;;;3.20;67.70;;;;;;5105239;28;27324;-60
2021/03/25 05:55:13;;;;;;;6.55;4.90;;;3.20;67.60;;;;;;5105168;28;27861;-60
2021/03/25 05:58:16;;;;;;;6.40;5.03;;;3.30;67.30;;;;;;5104507;28;27379;-60
2021/03/25 06:01:10;;;;;;;8.70;5.07;;;3.30;67.50;;;;;;5105413;28;27376;-60
2021/03/25 06:04:19;;;;;;;7.78;5.43;;;3.40;67.40;;;;;;5105335;28;27345;-60
2021/03/25 06:07:16;;;;;;;7.57;5.47;;;3.50;67.30;;;;;;5089640;28;27343;-60
2021/03/25 06:10:19;;;;;;;8.70;5.05;;;3.50;67.20;;;;;;5105141;28;27581;-60
2021/03/25 06:13:06;;;;;;;7.68;5.32;;;3.60;66.90;;;;;;5104953;28;27348;-60
2021/03/25 06:16:24;;;;;;;7.53;5.18;;;3.70;66.80;;;;;;5105124;28;27420;-60
2021/03/25 06:19:21;;;;;;;11.00;5.60;;;3.80;66.70;;;;;;5104752;28;27514;-59
2021/03/25 06:22:24;;;;;;;12.50;6.93;;;3.90;66.50;;;;;;5101735;28;27349;-60
2021/03/25 06:25:17;;;;;;;12.98;7.68;;;4.00;66.40;;;;;;5104769;28;27584;-60
2021/03/25 06:28:27;;;;;;;12.02;7.38;;;4.10;66.30;;;;;;5101677;28;26916;-60
2021/03/25 06:31:33;;;;;;;12.45;7.82;;;4.20;66.10;;;;;;5074705;28;27367;-60
2021/03/25 06:34:37;;;;;;;10.35;6.95;;;4.30;66.10;;;;;;5104792;28;27399;-60
2021/03/25 06:37:24;;;;;;;14.52;8.48;;;4.30;65.90;;;;;;5075397;28;27377;-60
2021/03/25 06:40:19;;;;;;;12.07;6.40;;;4.40;65.80;;;;;;5104863;28;27329;-60
2021/03/25 06:43:07;;;;;;;10.40;6.65;;;4.50;65.70;;;;;;5088520;28;27608;-60
2021/03/25 06:46:07;;;;;;;11.25;7.07;;;4.60;65.60;;;;;;5104324;28;27420;-59
2021/03/25 06:48:54;;;;;;;8.57;6.18;;;4.70;65.40;;;;;;5104691;28;27341;-59
2021/03/25 06:51:41;;;;;;;11.68;6.88;;;4.90;65.40;;;;;;5086482;28;27578;-60
2021/03/25 06:54:26;;;;;;;11.38;6.72;;;5.00;65.20;;;;;;5074887;28;27416;-60
2021/03/25 06:57:14;;;;;;;10.20;6.55;;;5.20;64.80;;;;;;5104478;28;27542;-60
2021/03/25 06:59:58;;;;;;;10.45;7.07;;;5.50;64.30;;;;;;5089748;28;27481;-59
2021/03/25 07:02:44;;;;;;;8.75;5.88;;;5.80;63.60;;;;;;5089380;28;27519;-59
2021/03/25 07:05:30;;;;;;;10.57;6.78;;;6.20;62.80;;;;;;5085917;28;27475;-59
2021/03/25 07:08:16;;;;;;;11.15;6.35;;;6.60;61.80;;;;;;5104137;28;27407;-60
2021/03/25 07:11:05;;;;;;;9.05;5.65;;;7.10;60.80;;;;;;5089090;28;27341;-60
2021/03/25 07:13:57;;;;;;;10.75;6.82;;;7.60;59.50;;;;;;5075003;28;27424;-60
2021/03/25 07:16:43;;;;;;;10.68;6.30;;;8.00;58.40;;;;;;5104024;28;27964;-59
2021/03/25 07:19:28;;;;;;;9.50;6.25;;;8.50;57.80;;;;;;5103521;28;27356;-59
2021/03/25 07:22:19;;;;;;;11.38;6.57;;;8.90;57.00;;;;;;5104062;28;27348;-60
2021/03/25 07:25:22;;;;;;;6.80;5.07;;;9.30;56.40;;;;;;5103823;28;27386;-60
2021/03/25 07:28:19;;;;;;;7.18;5.43;;;9.70;56.70;;;;;;5100866;28;27407;-59
2021/03/25 07:31:04;;;;;;;7.32;6.00;;;10.00;56.40;;;;;;5103718;28;27416;-59
2021/03/25 07:33:48;;;;;;;7.65;5.50;;;10.30;55.80;;;;;;5103896;28;27504;-59
2021/03/25 07:36:53;;;;;;;7.68;5.03;;;10.70;55.90;;;;;;5104025;28;27435;-59
2021/03/25 07:39:49;;;;;;;6.80;4.70;;;11.20;55.50;;;;;;5071109;28;27401;-59
2021/03/25 07:42:37;;;;;;;8.70;5.53;;;11.60;54.90;;;;;;5081868;28;27566;-60
2021/03/25 07:45:30;;;;;;;5.70;4.65;;;12.10;54.60;;;;;;5085434;28;27370;-59
2021/03/25 07:48:25;;;;;;;7.65;5.10;;;12.60;53.70;;;;;;5086345;28;27405;-59
2021/03/25 07:51:12;;;;;;;8.02;4.93;;;13.20;52.70;;;;;;5086809;28;27371;-59
2021/03/25 07:54:13;;;;;;;6.72;4.40;;;13.70;51.60;;;;;;5086939;28;27430;-60
2021/03/25 07:57:05;;;;;;;9.05;4.50;;;14.30;51.60;;;;;;5087094;28;27458;-60
2021/03/25 07:59:51;;;;;;;6.35;5.28;;;14.70;50.90;;;;;;5086668;28;27444;-57
2021/03/25 08:02:38;;;;;;;6.90;4.50;;;15.20;51.00;;;;;;5086902;28;27934;-57
2021/03/25 08:05:27;;;;;;;5.40;4.30;;;15.70;50.00;;;;;;5086522;28;27450;-58
2021/03/25 08:08:33;;;;;;;6.80;4.15;;;16.20;49.50;;;;;;5086866;28;27406;-57
2021/03/25 08:11:21;;;;;;;6.55;4.30;;;16.70;48.00;;;;;;5085946;28;27411;-57
2021/03/25 08:14:20;;;;;;;5.80;4.35;;;17.00;48.50;;;;;;5086078;28;27868;-60
2021/03/25 08:17:10;;;;;;;5.95;3.90;;;17.30;47.80;;;;;;5085675;28;27408;-60
2021/03/25 08:20:12;;;;;;;7.60;4.28;;;17.50;47.80;;;;;;5086426;28;27540;-60
2021/03/25 08:23:02;;;;;;;7.03;3.95;;;17.90;47.30;;;;;;5082631;28;27393;-57
2021/03/25 08:25:53;;;;;;;8.77;4.20;;;18.20;46.60;;;;;;5086506;28;27458;-57
2021/03/25 08:28:55;;;;;;;8.70;4.70;;;18.60;46.40;;;;;;5086197;28;27467;-57
2021/03/25 08:32:23;;;;;;;10.18;4.50;;;19.10;45.50;;;;;;5085224;28;27398;-58
2021/03/25 08:35:28;;;;;;;8.68;4.85;;;19.60;44.80;;;;;;5086110;28;27314;-58
2021/03/25 08:38:36;;;;;;;8.57;4.55;;;20.10;44.20;;;;;;5085286;28;27404;-58
2021/03/25 08:41:27;;;;;;;6.80;4.22;;;20.50;43.40;;;;;;5088117;28;27482;-57
2021/03/25 08:44:26;;;;;;;6.43;4.20;;;20.90;42.40;;;;;;5091564;28;27443;-58
2021/03/25 08:47:34;;;;;;;5.65;4.03;;;21.10;42.40;;;;;;5106652;28;27388;-58
2021/03/25 08:50:39;;;;;;;6.82;4.10;;;21.20;42.20;;;;;;5103295;28;27431;-58
2021/03/25 08:53:40;;;;;;;4.85;4.15;;;21.50;41.80;;;;;;5106458;28;27440;-58
2021/03/25 08:56:40;;;;;;;5.60;3.85;;;21.80;41.70;;;;;;5106166;27;27478;-58
2021/03/25 08:59:37;;;;;;;7.70;4.18;;;22.20;41.60;;;;;;5106092;28;27430;-58
2021/03/25 09:02:33;;;;;;;5.22;4.25;;;22.50;40.80;;;;;;5105995;28;27854;-58
2021/03/25 09:05:38;;;;;;;6.05;4.18;;;22.90;40.40;;;;;;5106258;28;27393;-58
2021/03/25 09:08:23;;;;;;;4.90;3.78;;;23.40;39.80;;;;;;5105499;28;27371;-58
2021/03/25 09:11:10;;;;;;;5.85;4.30;;;23.70;39.30;;;;;;5076441;28;27388;-58
2021/03/25 09:13:58;;;;;;;6.07;4.30;;;24.00;39.20;;;;;;5090670;28;27386;-58
2021/03/25 09:16:43;;;;;;;5.40;3.97;;;24.30;38.60;;;;;;5090859;28;27467;-58
2021/03/25 09:19:31;;;;;;;5.18;3.63;;;24.60;38.50;;;;;;5076691;28;27478;-58
2021/03/25 09:22:45;;;;;;;6.13;4.30;;;25.00;38.10;;;;;;5105941;28;27325;-58
2021/03/25 09:25:36;;;;;;;5.03;3.97;;;25.40;37.60;;;;;;5105815;28;27325;-58
2021/03/25 09:28:21;;;;;;;5.35;3.92;;;25.60;37.00;;;;;;5105543;28;27466;-58
2021/03/25 09:31:11;;;;;;;6.32;4.03;;;25.80;37.00;;;;;;5090546;28;27474;-58
2021/03/25 09:33:57;;;;;;;6.68;4.80;;;25.90;36.80;;;;;;5087337;28;27380;-58
2021/03/25 09:36:44;;;;;;;4.47;3.60;;;26.00;36.80;;;;;;5105269;28;27415;-58
2021/03/25 09:39:33;;;;;;;6.60;3.92;;;26.10;37.00;;;;;;5105471;28;27416;-58
2021/03/25 09:42:18;;;;;;;7.78;4.70;;;26.20;37.10;;;;;;5105050;28;27455;-58
2021/03/25 09:45:34;;;;;;;7.35;4.05;;;26.40;37.00;;;;;;5105375;28;27515;-58
2021/03/25 09:48:26;;;;;;;4.93;3.58;;;26.60;36.00;;;;;;5090012;28;27446;-58
2021/03/25 09:51:28;;;;;;;4.57;3.85;;;26.70;36.30;;;;;;5090305;28;27525;-58
2021/03/25 09:54:24;;;;;;;6.78;3.78;;;26.90;36.40;;;;;;5105393;28;27387;-58
2021/03/25 09:57:30;;;;;;;5.47;4.03;;;27.10;36.20;;;;;;5105141;28;27395;-58
2021/03/25 10:00:18;;;;;;;5.53;4.22;;;27.30;36.30;;;;;;5105349;28;27845;-58
2021/03/25 10:03:04;;;;;;;7.00;3.60;;;27.30;36.30;;;;;;5104526;28;27458;-58
2021/03/25 10:05:49;;;;;;;5.70;3.97;;;27.40;36.20;;;;;;5105107;27;27454;-58
2021/03/25 10:08:36;;;;;;;8.65;4.55;;;27.40;35.90;;;;;;5104919;28;27467;-58
2021/03/25 10:11:48;;;;;;;6.72;3.90;;;27.60;35.90;;;;;;5105050;28;27425;-58
2021/03/25 10:14:46;;;;;;;6.63;4.35;;;27.90;35.50;;;;;;5104867;28;27439;-59
2021/03/25 10:17:47;;;;;;;6.32;4.07;;;28.20;35.30;;;;;;5104721;28;27419;-58
2021/03/25 10:20:47;;;;;;;6.20;4.43;;;28.40;35.40;;;;;;5104877;28;27397;-59
2021/03/25 10:23:50;;;;;;;8.93;3.95;;;28.60;35.10;;;;;;5104649;28;27329;-58
2021/03/25 10:26:38;;;;;;;7.93;4.32;;;28.90;34.70;;;;;;5104956;28;27407;-58
2021/03/25 10:29:29;;;;;;;6.38;3.88;;;29.30;34.10;;;;;;5071682;28;27373;-58
2021/03/25 10:32:26;;;;;;;5.30;4.15;;;29.60;34.50;;;;;;5085995;28;27424;-59
2021/03/25 10:35:16;;;;;;;8.18;4.75;;;29.70;34.00;;;;;;5104736;28;27929;-58
2021/03/25 10:38:05;;;;;;;6.90;3.58;;;29.70;33.20;;;;;;5089961;28;27455;-57
2021/03/25 10:40:55;;;;;;;10.70;4.18;;;29.70;34.40;;;;;;5089922;28;27483;-57
2021/03/25 10:43:40;;;;;;;8.80;3.90;;;29.60;33.40;;;;;;5063603;28;27545;-56
2021/03/25 10:46:35;;;;;;;8.88;4.25;;;29.40;33.60;;;;;;5063821;28;27350;-57
2021/03/25 10:49:22;;;;;;;4.97;3.40;;;29.30;33.60;;;;;;5063789;28;27372;-57
2021/03/25 10:52:23;;;;;;;7.20;4.25;;;29.50;33.80;;;;;;5063894;28;27428;-57
2021/03/25 10:55:32;;;;;;;6.95;4.25;;;29.90;33.90;;;;;;5063057;28;27343;-57
2021/03/25 10:58:23;;;;;;;4.10;3.35;;;30.40;33.30;;;;;;5063227;28;27412;-57
2021/03/25 11:01:25;;;;;;;6.30;4.25;;;30.90;33.00;;;;;;5063571;28;27483;-56
2021/03/25 11:04:17;;;;;;;4.88;3.70;;;31.30;32.00;;;;;;5063004;28;27474;-57
2021/03/25 11:07:12;;;;;;;4.50;3.67;;;31.70;32.00;;;;;;5063631;28;27425;-57
2021/03/25 11:09:58;;;;;;;6.63;3.88;;;32.10;31.50;;;;;;5063642;28;27476;-57
2021/03/25 11:12:42;;;;;;;5.20;3.97;;;32.30;31.10;;;;;;5063140;28;27403;-57
2021/03/25 11:15:30;;;;;;;5.15;3.80;;;32.60;30.80;;;;;;5063005;28;27473;-58
2021/03/25 11:18:19;;;;;;;6.05;3.80;;;32.20;30.70;;;;;;5065282;28;27462;-57
2021/03/25 11:21:05;;;;;;;7.40;4.03;;;31.70;31.20;;;;;;5066894;28;27325;-57
2021/03/25 11:23:57;;;;;;;5.18;3.65;;;30.90;31.60;;;;;;5065544;28;27496;-57
2021/03/25 11:26:41;;;;;;;6.28;3.38;;;30.10;32.80;;;;;;5066865;28;27403;-57
2021/03/25 11:29:28;;;;;;;5.47;3.80;;;29.80;33.80;;;;;;5052196;28;27384;-57
2021/03/25 11:32:13;;;;;;;8.38;4.18;;;29.80;33.20;;;;;;5051932;28;27388;-57
2021/03/25 11:35:19;;;;;;;4.50;3.45;;;29.50;32.80;;;;;;5067021;28;27403;-57
2021/03/25 11:38:20;;;;;;;7.93;3.83;;;28.90;33.80;;;;;;5067078;28;27313;-57
2021/03/25 11:41:31;;;;;;;4.85;3.35;;;28.90;34.60;;;;;;5066933;28;27403;-56
2021/03/25 11:44:34;;;;;;;5.18;2.65;;;29.30;34.80;;;;;;5063660;28;28058;-57
2021/03/25 11:47:31;;;;;;;4.60;3.05;;;30.00;34.70;;;;;;5066782;28;27383;-58
2021/03/25 11:50:15;;;;;;;4.40;2.47;;;30.60;34.00;;;;;;5066366;28;27440;-58
2021/03/25 11:53:01;;;;;;;3.60;2.90;;;31.10;33.30;;;;;;5066626;28;27578;-58
2021/03/25 11:55:51;;;;;;;3.47;2.45;;;31.60;32.00;;;;;;5066409;28;27470;-58
2021/03/25 11:58:35;;;;;;;3.53;2.33;;;32.00;31.30;;;;;;5066721;28;27308;-58
2021/03/25 12:01:24;;;;;;;4.07;2.15;;;32.30;31.40;;;;;;5048638;28;27389;-58
2021/03/25 12:04:15;;;;;;;4.35;2.20;;;32.60;30.60;;;;;;5066402;28;27360;-57
2021/03/25 12:07:04;;;;;;;2.65;2.20;;;32.70;30.20;;;;;;5066255;28;27427;-58
2021/03/25 12:10:13;;;;;;;5.13;2.35;;;32.80;30.30;;;;;;5066535;28;27531;-58
2021/03/25 12:12:57;;;;;;;3.47;2.03;;;32.70;30.40;;;;;;5066247;28;27486;-57
2021/03/25 12:15:42;;;;;;;3.08;2.35;;;32.50;30.20;;;;;;5066155;28;27403;-58
2021/03/25 12:18:32;;;;;;;4.22;2.10;;;32.50;30.90;;;;;;5065810;28;27420;-57
2021/03/25 12:21:16;;;;;;;4.97;2.60;;;32.50;31.10;;;;;;5065575;28;27393;-58
2021/03/25 12:24:01;;;;;;;3.00;2.33;;;32.60;31.10;;;;;;5065665;28;27418;-58
2021/03/25 12:26:46;;;;;;;2.67;2.20;;;32.60;30.60;;;;;;5066236;28;27341;-57
2021/03/25 12:29:31;;;;;;;5.15;2.17;;;32.60;29.50;;;;;;5065627;28;27376;-58
2021/03/25 12:32:15;;;;;;;3.15;2.10;;;32.50;29.90;;;;;;5065912;28;27415;-58
2021/03/25 12:35:01;;;;;;;3.00;2.33;;;32.30;30.20;;;;;;5065435;28;27496;-58
2021/03/25 12:37:48;;;;;;;3.05;1.83;;;31.90;29.70;;;;;;5066159;28;27323;-58
2021/03/25 12:40:33;;;;;;;2.60;1.90;;;31.60;30.80;;;;;;5065720;28;27349;-58
2021/03/25 12:43:19;;;;;;;3.97;1.83;;;31.10;31.90;;;;;;5100500;28;27397;-58
2021/03/25 12:46:06;;;;;;;4.35;2.10;;;30.70;31.90;;;;;;5106524;28;27325;-58
2021/03/25 12:48:50;;;;;;;2.13;1.65;;;30.50;32.50;;;;;;5106339;28;27407;-58
2021/03/25 12:51:35;;;;;;;2.83;1.63;;;30.30;32.80;;;;;;5106404;28;27987;-58
2021/03/25 12:54:19;;;;;;;2.75;1.75;;;30.20;32.40;;;;;;5088044;28;27408;-57
2021/03/25 12:57:04;;;;;;;4.95;2.13;;;30.00;32.10;;;;;;5106281;28;27386;-58
2021/03/25 12:59:49;;;;;;;2.75;1.90;;;29.90;33.10;;;;;;5091046;28;27422;-57
2021/03/25 13:02:33;;;;;;;2.95;2.20;;;29.70;33.10;;;;;;5091272;28;27447;-57
2021/03/25 13:05:20;;;;;;;3.42;1.85;;;29.60;33.10;;;;;;5106264;28;27345;-57
2021/03/25 13:08:05;;;;;;;2.45;1.65;;;29.60;32.20;;;;;;5106306;28;27346;-58
2021/03/25 13:10:49;;;;;;;3.83;1.88;;;29.60;32.40;;;;;;5105819;28;27348;-57
2021/03/25 13:13:34;;;;;;;4.72;1.75;;;29.60;32.90;;;;;;5105454;28;27400;-58
2021/03/25 13:16:19;;;;;;;2.53;1.80;;;29.60;33.10;;;;;;5105704;28;27407;-57
2021/03/25 13:19:04;;;;;;;2.75;2.13;;;29.60;32.90;;;;;;5105823;28;27393;-57
2021/03/25 13:21:48;;;;;;;4.57;2.00;;;29.60;32.80;;;;;;5105971;28;27328;-57
2021/03/25 13:24:33;;;;;;;2.50;1.75;;;29.60;32.60;;;;;;5105572;28;27338;-58
2021/03/25 13:27:18;;;;;;;3.20;2.35;;;29.70;32.80;;;;;;5105488;28;27359;-57
2021/03/25 13:30:04;;;;;;;2.63;1.80;;;29.70;33.10;;;;;;5105619;28;27383;-58
2021/03/25 13:32:48;;;;;;;5.55;1.95;;;29.60;33.10;;;;;;5086779;28;27430;-57
2021/03/25 13:35:34;;;;;;;4.70;1.55;;;29.50;32.90;;;;;;5105668;28;27932;-58
2021/03/25 13:38:18;;;;;;;1.65;1.45;;;29.40;32.70;;;;;;5105456;28;27333;-57
2021/03/25 13:41:03;;;;;;;1.98;1.52;;;29.40;32.70;;;;;;5104671;27;27403;-57
2021/03/25 13:43:48;;;;;;;1.98;1.77;;;29.40;33.00;;;;;;5102536;28;27305;-58
2021/03/25 13:46:33;;;;;;;3.60;1.50;;;29.40;33.50;;;;;;5105352;28;27378;-58
2021/03/25 13:49:17;;;;;;;2.22;1.52;;;29.50;33.40;;;;;;5105637;28;27357;-57
2021/03/25 13:52:02;;;;;;;3.97;1.70;;;29.60;33.00;;;;;;5105160;28;27383;-58
2021/03/25 13:54:48;;;;;;;2.10;1.38;;;29.50;33.00;;;;;;5105584;28;27325;-58
2021/03/25 13:57:33;;;;;;;2.63;1.70;;;29.30;32.90;;;;;;5104983;28;27376;-58
2021/03/25 14:00:18;;;;;;;3.22;1.75;;;29.10;33.10;;;;;;5105107;28;27336;-58
2021/03/25 14:03:04;;;;;;;1.98;1.50;;;29.00;33.40;;;;;;5105041;28;27368;-57
2021/03/25 14:05:49;;;;;;;2.33;1.70;;;28.90;34.20;;;;;;5105346;28;27328;-57
2021/03/25 14:08:34;;;;;;;2.42;1.60;;;28.80;34.30;;;;;;5104471;28;27880;-57
2021/03/25 14:11:18;;;;;;;4.20;1.98;;;28.80;33.80;;;;;;5089697;28;27554;-57
2021/03/25 14:14:04;;;;;;;2.10;1.77;;;28.80;34.10;;;;;;5104952;28;27390;-57
2021/03/25 14:16:49;;;;;;;2.97;1.55;;;28.70;34.40;;;;;;5105173;28;27316;-57
2021/03/25 14:19:34;;;;;;;2.78;1.83;;;28.80;34.40;;;;;;5104993;28;27320;-57
2021/03/25 14:22:18;;;;;;;1.90;1.50;;;28.80;34.10;;;;;;5105062;28;27340;-57
2021/03/25 14:25:04;;;;;;;2.20;1.70;;;28.60;33.50;;;;;;5105002;28;27367;-57
2021/03/25 14:27:49;;;;;;;2.67;1.40;;;28.40;32.80;;;;;;5089763;28;27339;-57
2021/03/25 14:30:34;;;;;;;3.65;1.70;;;28.10;32.50;;;;;;5104631;28;27963;-58
2021/03/25 14:33:19;;;;;;;1.77;1.13;;;27.80;32.00;;;;;;5104819;28;27335;-57
2021/03/25 14:36:04;;;;;;;2.20;1.58;;;27.30;33.30;;;;;;5104619;28;27388;-57
2021/03/25 14:38:49;;;;;;;1.73;1.40;;;26.90;33.90;;;;;;5104551;28;27333;-57
2021/03/25 14:41:33;;;;;;;1.77;1.20;;;26.50;34.40;;;;;;5104103;28;27445;-58
2021/03/25 14:44:18;;;;;;;6.50;1.38;;;26.10;34.90;;;;;;5104735;28;27371;-57
2021/03/25 14:47:03;;;;;;;1.95;1.58;;;25.70;35.30;;;;;;5104778;28;27307;-57
2021/03/25 14:49:47;;;;;;;4.47;1.33;;;25.50;35.60;;;;;;5086333;28;27374;-58
2021/03/25 14:52:32;;;;;;;2.08;1.40;;;25.40;35.80;;;;;;5104020;28;27402;-57
2021/03/25 14:55:17;;;;;;;4.53;1.45;;;25.30;35.90;;;;;;5104446;28;27391;-57
2021/03/25 14:58:02;;;;;;;1.70;1.40;;;25.20;36.30;;;;;;5104568;28;27423;-57
2021/03/25 15:00:48;;;;;;;2.83;1.40;;;25.20;36.40;;;;;;5104626;28;27315;-57
2021/03/25 15:03:33;;;;;;;4.50;1.33;;;25.10;36.10;;;;;;5103773;28;27331;-57